Time,TemperatureF,DewpointF,PressureIn,WindDirection,WindDirectionDegrees,WindSpeedMPH,WindSpeedGustMPH,Humidity,HourlyPrecipIn,Conditions,Clouds,dailyrainin,SoftwareType,DateUTC
2013-04-02 00:02:00,28.0,27.0,-100.00,NNW,340,1.0,2.0,95,-99.99,,,-99.99,,2013-04-02 06:02:00,
2013-04-02 00:12:00,28.0,27.0,-100.00,NNW,340,1.0,2.0,95,-99.99,,,-99.99,,2013-04-02 06:12:00,
2013-04-02 00:22:00,28.0,27.0,-100.00,NNW,345,1.0,4.0,95,-99.99,,,-99.99,,2013-04-02 06:22:00,
2013-04-02 00:32:00,28.0,27.0,-100.00,NNW,345,1.0,4.0,95,-99.99,,,-99.99,,2013-04-02 06:32:00,
2013-04-02 00:42:00,29.0,28.0,-100.00,NNW,345,1.0,3.0,95,-99.99,,,-99.99,,2013-04-02 06:42:00,
2013-04-02 00:52:00,29.0,28.0,-100.00,NNW,345,1.0,3.0,95,-99.99,,,-99.99,,2013-04-02 06:52:00,
2013-04-02 01:02:00,29.0,28.0,-100.00,NNW,345,2.0,2.0,95,-99.99,,,-99.99,,2013-04-02 07:02:00,
2013-04-02 01:12:00,29.0,28.0,-100.00,NNW,345,2.0,2.0,95,-99.99,,,-99.99,,2013-04-02 07:12:00,
2013-04-02 01:22:00,29.0,28.0,-100.00,NNW,345,2.0,3.0,95,-99.99,,,-99.99,,2013-04-02 07:22:00,
2013-04-02 01:32:00,29.0,28.0,-100.00,NNW,345,2.0,3.0,95,-99.99,,,-99.99,,2013-04-02 07:32:00,
2013-04-02 01:42:00,29.0,28.0,-100.00,NNW,340,1.0,3.0,95,-99.99,,,-99.99,,2013-04-02 07:42:00,
2013-04-02 01:52:00,29.0,28.0,-100.00,NNW,340,1.0,3.0,95,-99.99,,,-99.99,,2013-04-02 07:52:00,
2013-04-02 02:02:00,29.0,28.0,-100.00,NNW,340,1.0,2.0,95,-99.99,,,-99.99,,2013-04-02 08:02:00,
2013-04-02 02:13:00,29.0,28.0,-100.00,NNW,340,1.0,2.0,95,-99.99,,,-99.99,,2013-04-02 08:13:00,
2013-04-02 02:22:00,30.0,29.0,-100.00,NNW,340,1.0,3.0,95,-99.99,,,-99.99,,2013-04-02 08:22:00,
2013-04-02 02:32:00,30.0,29.0,-100.00,NNW,340,1.0,3.0,95,-99.99,,,-99.99,,2013-04-02 08:32:00,
2013-04-02 02:42:00,30.0,29.0,-100.00,NNW,340,1.0,3.0,95,-99.99,,,-99.99,,2013-04-02 08:42:00,
2013-04-02 02:52:00,30.0,29.0,-100.00,NNW,340,1.0,3.0,95,-99.99,,,-99.99,,2013-04-02 08:52:00,
2013-04-02 03:02:00,29.0,28.0,-100.00,NNW,340,0.0,4.0,95,-99.99,,,-99.99,,2013-04-02 09:02:00,
2013-04-02 03:12:00,29.0,28.0,-100.00,NNW,340,0.0,4.0,95,-99.99,,,-99.99,,2013-04-02 09:12:00,
2013-04-02 03:22:00,29.0,28.0,-100.00,NNW,340,1.0,3.0,95,-99.99,,,-99.99,,2013-04-02 09:22:00,
2013-04-02 03:32:00,29.0,28.0,-100.00,NNW,340,1.0,3.0,95,-99.99,,,-99.99,,2013-04-02 09:32:00,
2013-04-02 03:43:00,29.0,28.0,-100.00,NNW,340,1.0,3.0,95,-99.99,,,-99.99,,2013-04-02 09:43:00,
2013-04-02 03:53:00,29.0,28.0,-100.00,NNW,340,1.0,3.0,95,-99.99,,,-99.99,,2013-04-02 09:53:00,
2013-04-02 04:03:00,29.0,28.0,-100.00,NNW,340,4.0,6.0,95,-99.99,,,-99.99,,2013-04-02 10:03:00,
2013-04-02 04:13:00,29.0,28.0,-100.00,NNW,340,4.0,6.0,95,-99.99,,,-99.99,,2013-04-02 10:13:00,
2013-04-02 04:23:00,29.0,27.0,-100.00,NNW,340,2.0,6.0,95,-99.99,,,-99.99,,2013-04-02 10:23:00,
2013-04-02 04:33:00,29.0,27.0,-100.00,NNW,340,2.0,6.0,95,-99.99,,,-99.99,,2013-04-02 10:33:00,
2013-04-02 04:42:00,29.0,27.0,-100.00,NNW,340,0.0,3.0,95,-99.99,,,-99.99,,2013-04-02 10:42:00,
2013-04-02 04:52:00,29.0,27.0,-100.00,NNW,340,0.0,3.0,95,-99.99,,,-99.99,,2013-04-02 10:52:00,
2013-04-02 05:02:00,29.0,28.0,-100.00,NNW,340,1.0,1.0,95,-99.99,,,-99.99,,2013-04-02 11:02:00,
2013-04-02 05:12:00,29.0,28.0,-100.00,NNW,340,1.0,1.0,95,-99.99,,,-99.99,,2013-04-02 11:12:00,
2013-04-02 05:22:00,29.0,28.0,-100.00,NNW,340,0.0,0.0,95,-99.99,,,-99.99,,2013-04-02 11:22:00,
2013-04-02 05:33:00,29.0,28.0,-100.00,NNW,340,0.0,0.0,95,-99.99,,,-99.99,,2013-04-02 11:33:00,
2013-04-02 05:43:00,29.0,28.0,-100.00,NNW,340,2.0,2.0,95,-99.99,,,-99.99,,2013-04-02 11:43:00,
2013-04-02 05:53:00,29.0,28.0,-100.00,NNW,340,2.0,2.0,95,-99.99,,,-99.99,,2013-04-02 11:53:00,
2013-04-02 06:02:00,29.0,28.0,-100.00,NNW,340,1.0,2.0,95,-99.99,,,-99.99,,2013-04-02 12:02:00,
2013-04-02 06:12:00,29.0,28.0,-100.00,NNW,340,1.0,2.0,95,-99.99,,,-99.99,,2013-04-02 12:12:00,
2013-04-02 06:22:00,29.0,28.0,-100.00,NNW,340,0.0,1.0,95,-99.99,,,-99.99,,2013-04-02 12:22:00,
2013-04-02 06:32:00,29.0,28.0,-100.00,NNW,340,0.0,1.0,95,-99.99,,,-99.99,,2013-04-02 12:32:00,
2013-04-02 06:42:00,29.0,28.0,-100.00,NNW,340,0.0,2.0,95,-99.99,,,-99.99,,2013-04-02 12:42:00,
2013-04-02 06:52:00,29.0,28.0,-100.00,NNW,340,0.0,2.0,95,-99.99,,,-99.99,,2013-04-02 12:52:00,
2013-04-02 07:02:00,29.0,28.0,-100.00,NNW,340,0.0,1.0,95,-99.99,,,-99.99,,2013-04-02 13:02:00,
2013-04-02 07:12:00,29.0,28.0,-100.00,NNW,340,0.0,1.0,95,-99.99,,,-99.99,,2013-04-02 13:12:00,
2013-04-02 07:22:00,29.0,28.0,-100.00,NNW,340,1.0,1.0,95,-99.99,,,-99.99,,2013-04-02 13:22:00,
2013-04-02 07:33:00,29.0,28.0,-100.00,NNW,340,1.0,1.0,95,-99.99,,,-99.99,,2013-04-02 13:33:00,
2013-04-02 07:42:00,29.0,28.0,-100.00,NNW,340,0.0,2.0,95,-99.99,,,-99.99,,2013-04-02 13:42:00,
2013-04-02 07:52:00,29.0,28.0,-100.00,NNW,340,0.0,2.0,95,-99.99,,,-99.99,,2013-04-02 13:52:00,
2013-04-02 08:02:00,29.0,28.0,-100.00,NNW,340,1.0,3.0,95,-99.99,,,-99.99,,2013-04-02 14:02:00,
2013-04-02 08:12:00,29.0,28.0,-100.00,NNW,340,1.0,3.0,95,-99.99,,,-99.99,,2013-04-02 14:12:00,
2013-04-02 08:23:00,29.0,28.0,-100.00,NNW,340,2.0,7.0,95,-99.99,,,-99.99,,2013-04-02 14:23:00,
2013-04-02 08:32:00,29.0,28.0,-100.00,NNW,340,2.0,7.0,95,-99.99,,,-99.99,,2013-04-02 14:32:00,
2013-04-02 08:42:00,30.0,29.0,-100.00,NNW,340,1.0,3.0,95,-99.99,,,-99.99,,2013-04-02 14:42:00,
2013-04-02 08:52:00,30.0,29.0,-100.00,NNW,340,1.0,3.0,95,-99.99,,,-99.99,,2013-04-02 14:52:00,
2013-04-02 09:02:00,30.0,29.0,-100.00,NNW,340,1.0,5.0,95,-99.99,,,-99.99,,2013-04-02 15:02:00,
2013-04-02 09:11:00,30.0,29.0,-100.00,NNW,340,1.0,5.0,95,-99.99,,,-99.99,,2013-04-02 15:11:00,
2013-04-02 09:22:00,30.0,29.0,-100.00,NNW,340,1.0,5.0,95,-99.99,,,-99.99,,2013-04-02 15:22:00,
2013-04-02 09:33:00,30.0,29.0,-100.00,NNW,340,1.0,5.0,95,-99.99,,,-99.99,,2013-04-02 15:33:00,
2013-04-02 09:43:00,31.0,30.0,-100.00,NNW,340,1.0,3.0,95,-99.99,,,-99.99,,2013-04-02 15:43:00,
2013-04-02 09:57:00,31.0,30.0,-100.00,NNW,340,1.0,3.0,95,-99.99,,,-99.99,,2013-04-02 15:57:00,
2013-04-02 10:03:00,31.0,30.0,-100.00,NNW,335,3.0,4.0,93,-99.99,,,-99.99,,2013-04-02 16:03:00,
2013-04-02 10:13:00,31.0,30.0,-100.00,NNW,335,3.0,4.0,93,-99.99,,,-99.99,,2013-04-02 16:13:00,
2013-04-02 10:24:00,33.0,30.0,-100.00,NW,325,3.0,6.0,90,-99.99,,,-99.99,,2013-04-02 16:24:00,
2013-04-02 10:35:00,33.0,30.0,-100.00,NW,325,3.0,6.0,90,-99.99,,,-99.99,,2013-04-02 16:35:00,
2013-04-02 10:43:00,34.0,29.0,-100.00,WNW,300,2.0,6.0,84,-99.99,,,-99.99,,2013-04-02 16:43:00,
2013-04-02 10:53:00,34.0,29.0,-100.00,WNW,300,2.0,6.0,84,-99.99,,,-99.99,,2013-04-02 16:53:00,
2013-04-02 11:05:00,34.0,29.0,-100.00,WNW,290,3.0,6.0,82,-99.99,,,-99.99,,2013-04-02 17:05:00,
2013-04-02 11:13:00,34.0,29.0,-100.00,WNW,290,3.0,6.0,82,-99.99,,,-99.99,,2013-04-02 17:13:00,
2013-04-02 11:24:00,34.0,29.0,-100.00,WNW,290,4.0,6.0,82,-99.99,,,-99.99,,2013-04-02 17:24:00,
2013-04-02 11:34:00,34.0,29.0,-100.00,WNW,290,4.0,6.0,82,-99.99,,,-99.99,,2013-04-02 17:34:00,
2013-04-02 11:43:00,33.0,29.0,-100.00,WNW,295,3.0,7.0,83,-99.99,,,-99.99,,2013-04-02 17:43:00,
2013-04-02 11:55:00,33.0,29.0,-100.00,WNW,295,3.0,7.0,83,-99.99,,,-99.99,,2013-04-02 17:55:00,
2013-04-02 12:03:00,33.0,29.0,-100.00,NW,305,3.0,6.0,86,-99.99,,,-99.99,,2013-04-02 18:03:00,
2013-04-02 12:12:00,33.0,29.0,-100.00,NW,305,3.0,6.0,86,-99.99,,,-99.99,,2013-04-02 18:12:00,
2013-04-02 12:23:00,31.0,28.0,-100.00,NW,315,3.0,6.0,88,-99.99,,,-99.99,,2013-04-02 18:23:00,
2013-04-02 12:34:00,31.0,28.0,-100.00,NW,315,3.0,6.0,88,-99.99,,,-99.99,,2013-04-02 18:34:00,
2013-04-02 12:43:00,31.0,28.0,-100.00,NW,320,2.0,4.0,89,-99.99,,,-99.99,,2013-04-02 18:43:00,
2013-04-02 12:57:00,31.0,28.0,-100.00,NW,320,2.0,4.0,89,-99.99,,,-99.99,,2013-04-02 18:57:00,
2013-04-02 13:03:00,30.0,28.0,-100.00,NW,325,2.0,5.0,90,-99.99,,,-99.99,,2013-04-02 19:03:00,
2013-04-02 13:13:00,30.0,28.0,-100.00,NW,325,2.0,5.0,90,-99.99,,,-99.99,,2013-04-02 19:13:00,
2013-04-02 13:22:00,32.0,29.0,-100.00,NW,325,2.0,4.0,90,-99.99,,,-99.99,,2013-04-02 19:22:00,
2013-04-02 13:34:00,32.0,29.0,-100.00,NW,325,2.0,4.0,90,-99.99,,,-99.99,,2013-04-02 19:34:00,
2013-04-02 13:45:00,32.0,30.0,-100.00,NW,320,2.0,6.0,90,-99.99,,,-99.99,,2013-04-02 19:45:00,
2013-04-02 13:56:00,32.0,30.0,-100.00,NW,320,2.0,6.0,90,-99.99,,,-99.99,,2013-04-02 19:56:00,
2013-04-02 14:03:00,31.0,28.0,-100.00,NW,315,4.0,6.0,88,-99.99,,,-99.99,,2013-04-02 20:03:00,
2013-04-02 14:13:00,31.0,28.0,-100.00,NW,315,4.0,6.0,88,-99.99,,,-99.99,,2013-04-02 20:13:00,
2013-04-02 14:22:00,30.0,27.0,-100.00,NW,315,3.0,7.0,87,-99.99,,,-99.99,,2013-04-02 20:22:00,
2013-04-02 14:33:00,30.0,27.0,-100.00,NW,315,3.0,7.0,87,-99.99,,,-99.99,,2013-04-02 20:33:00,
2013-04-02 14:43:00,30.0,27.0,-100.00,NW,310,6.0,9.0,87,-99.99,,,-99.99,,2013-04-02 20:43:00,
2013-04-02 14:54:00,30.0,27.0,-100.00,NW,310,6.0,9.0,87,-99.99,,,-99.99,,2013-04-02 20:54:00,
2013-04-02 15:04:00,30.0,26.0,-100.00,NW,305,4.0,9.0,86,-99.99,,,-99.99,,2013-04-02 21:04:00,
2013-04-02 15:13:00,30.0,26.0,-100.00,NW,305,4.0,9.0,86,-99.99,,,-99.99,,2013-04-02 21:13:00,
2013-04-02 15:23:00,29.0,26.0,-100.00,NW,305,4.0,6.0,86,-99.99,,,-99.99,,2013-04-02 21:23:00,
2013-04-02 15:34:00,29.0,26.0,-100.00,NW,305,4.0,6.0,86,-99.99,,,-99.99,,2013-04-02 21:34:00,
2013-04-02 15:43:00,30.0,27.0,-100.00,NW,310,5.0,9.0,87,-99.99,,,-99.99,,2013-04-02 21:43:00,
2013-04-02 15:55:00,30.0,27.0,-100.00,NW,310,5.0,9.0,87,-99.99,,,-99.99,,2013-04-02 21:55:00,
2013-04-02 16:04:00,30.0,27.0,-100.00,NW,310,6.0,9.0,87,-99.99,,,-99.99,,2013-04-02 22:04:00,
2013-04-02 16:14:00,30.0,27.0,-100.00,NW,310,6.0,9.0,87,-99.99,,,-99.99,,2013-04-02 22:14:00,
2013-04-02 16:24:00,29.0,26.0,-100.00,NW,310,4.0,9.0,87,-99.99,,,-99.99,,2013-04-02 22:24:00,
2013-04-02 16:33:00,29.0,26.0,-100.00,NW,310,4.0,9.0,87,-99.99,,,-99.99,,2013-04-02 22:33:00,
2013-04-02 16:43:00,29.0,26.0,-100.00,NW,315,7.0,12.0,88,-99.99,,,-99.99,,2013-04-02 22:43:00,
2013-04-02 16:54:00,29.0,26.0,-100.00,NW,315,7.0,12.0,88,-99.99,,,-99.99,,2013-04-02 22:54:00,
2013-04-02 17:02:00,28.0,25.0,-100.00,NW,315,4.0,9.0,88,-99.99,,,-99.99,,2013-04-02 23:02:00,
2013-04-02 17:13:00,28.0,25.0,-100.00,NW,315,4.0,9.0,88,-99.99,,,-99.99,,2013-04-02 23:13:00,
2013-04-02 17:23:00,28.0,25.0,-100.00,NW,320,6.0,11.0,89,-99.99,,,-99.99,,2013-04-02 23:23:00,
2013-04-02 17:34:00,28.0,25.0,-100.00,NW,320,6.0,11.0,89,-99.99,,,-99.99,,2013-04-02 23:34:00,
2013-04-02 17:42:00,28.0,25.0,-100.00,NW,320,4.0,9.0,90,-99.99,,,-99.99,,2013-04-02 23:42:00,
2013-04-02 17:54:00,28.0,25.0,-100.00,NW,320,4.0,9.0,90,-99.99,,,-99.99,,2013-04-02 23:54:00,
2013-04-02 18:03:00,28.0,25.0,-100.00,NW,325,4.0,7.0,90,-99.99,,,-99.99,,2013-04-03 00:03:00,
2013-04-02 18:13:00,28.0,25.0,-100.00,NW,325,4.0,7.0,90,-99.99,,,-99.99,,2013-04-03 00:13:00,
2013-04-02 18:23:00,28.0,25.0,-100.00,NW,325,3.0,6.0,91,-99.99,,,-99.99,,2013-04-03 00:23:00,
2013-04-02 18:33:00,28.0,25.0,-100.00,NW,325,3.0,6.0,91,-99.99,,,-99.99,,2013-04-03 00:33:00,
2013-04-02 18:46:00,27.0,25.0,-100.00,NW,325,4.0,6.0,91,-99.99,,,-99.99,,2013-04-03 00:46:00,
2013-04-02 18:55:00,27.0,25.0,-100.00,NW,325,4.0,6.0,91,-99.99,,,-99.99,,2013-04-03 00:55:00,
2013-04-02 19:03:00,27.0,25.0,-100.00,NW,325,4.0,7.0,91,-99.99,,,-99.99,,2013-04-03 01:03:00,
2013-04-02 19:12:00,27.0,25.0,-100.00,NW,325,4.0,7.0,91,-99.99,,,-99.99,,2013-04-03 01:12:00,
2013-04-02 19:22:00,27.0,25.0,-100.00,NNW,330,4.0,8.0,92,-99.99,,,-99.99,,2013-04-03 01:22:00,
2013-04-02 19:33:00,27.0,25.0,-100.00,NNW,330,4.0,8.0,92,-99.99,,,-99.99,,2013-04-03 01:33:00,
2013-04-02 19:42:00,27.0,25.0,-100.00,NNW,330,4.0,9.0,92,-99.99,,,-99.99,,2013-04-03 01:42:00,
2013-04-02 19:53:00,27.0,25.0,-100.00,NNW,330,4.0,9.0,92,-99.99,,,-99.99,,2013-04-03 01:53:00,
2013-04-02 20:03:00,27.0,25.0,-100.00,NNW,330,4.0,7.0,92,-99.99,,,-99.99,,2013-04-03 02:03:00,
2013-04-02 20:13:00,27.0,25.0,-100.00,NNW,330,4.0,7.0,92,-99.99,,,-99.99,,2013-04-03 02:13:00,
2013-04-02 20:23:00,27.0,25.0,-100.00,NNW,330,4.0,8.0,93,-99.99,,,-99.99,,2013-04-03 02:23:00,
2013-04-02 20:34:00,27.0,25.0,-100.00,NNW,330,4.0,8.0,93,-99.99,,,-99.99,,2013-04-03 02:34:00,
2013-04-02 20:43:00,27.0,25.0,-100.00,NNW,335,4.0,7.0,93,-99.99,,,-99.99,,2013-04-03 02:43:00,
2013-04-02 20:53:00,27.0,25.0,-100.00,NNW,335,4.0,7.0,93,-99.99,,,-99.99,,2013-04-03 02:53:00,
2013-04-02 21:04:00,27.0,25.0,-100.00,NNW,335,3.0,7.0,93,-99.99,,,-99.99,,2013-04-03 03:04:00,
2013-04-02 21:13:00,27.0,25.0,-100.00,NNW,335,3.0,7.0,93,-99.99,,,-99.99,,2013-04-03 03:13:00,
2013-04-02 21:22:00,27.0,25.0,-100.00,NNW,335,4.0,7.0,93,-99.99,,,-99.99,,2013-04-03 03:22:00,
2013-04-02 21:37:00,27.0,25.0,-100.00,NNW,335,4.0,7.0,93,-99.99,,,-99.99,,2013-04-03 03:37:00,
2013-04-02 21:43:00,26.0,25.0,-100.00,NNW,335,4.0,7.0,93,-99.99,,,-99.99,,2013-04-03 03:43:00,
2013-04-02 21:54:00,26.0,25.0,-100.00,NNW,335,4.0,7.0,93,-99.99,,,-99.99,,2013-04-03 03:54:00,
2013-04-02 22:03:00,27.0,25.0,-100.00,NNW,335,4.0,6.0,93,-99.99,,,-99.99,,2013-04-03 04:03:00,
2013-04-02 22:12:00,27.0,25.0,-100.00,NNW,335,4.0,6.0,93,-99.99,,,-99.99,,2013-04-03 04:12:00,
2013-04-02 22:23:00,27.0,25.0,-100.00,NNW,335,2.0,4.0,93,-99.99,,,-99.99,,2013-04-03 04:23:00,
2013-04-02 22:33:00,27.0,25.0,-100.00,NNW,335,2.0,4.0,93,-99.99,,,-99.99,,2013-04-03 04:33:00,
2013-04-02 22:43:00,27.0,25.0,-100.00,NNW,335,4.0,6.0,94,-99.99,,,-99.99,,2013-04-03 04:43:00,
2013-04-02 22:53:00,27.0,25.0,-100.00,NNW,335,4.0,6.0,94,-99.99,,,-99.99,,2013-04-03 04:53:00,
2013-04-02 23:02:00,27.0,25.0,-100.00,NNW,340,2.0,6.0,94,-99.99,,,-99.99,,2013-04-03 05:02:00,
2013-04-02 23:12:00,27.0,25.0,-100.00,NNW,340,2.0,6.0,94,-99.99,,,-99.99,,2013-04-03 05:12:00,
2013-04-02 23:22:00,27.0,25.0,-100.00,NNW,340,4.0,6.0,94,-99.99,,,-99.99,,2013-04-03 05:22:00,
2013-04-02 23:32:00,27.0,25.0,-100.00,NNW,340,4.0,6.0,94,-99.99,,,-99.99,,2013-04-03 05:32:00,
2013-04-02 23:42:00,27.0,25.0,-100.00,NNW,340,4.0,4.0,94,-99.99,,,-99.99,,2013-04-03 05:42:00,
2013-04-02 23:52:00,27.0,25.0,-100.00,NNW,340,4.0,4.0,94,-99.99,,,-99.99,,2013-04-03 05:52:00,